sensor_id;sensor_type;location;lat;lon;timestamp;P1;durP1;ratioP1;P2;durP2;ratioP2
71303;SDS011;59091;47.446;19.148;2023-07-29T00:01:15;3.38;;;2.45;;
71303;SDS011;59091;47.446;19.148;2023-07-29T00:03:40;5.65;;;2.72;;
71303;SDS011;59091;47.446;19.148;2023-07-29T00:06:06;6.80;;;2.80;;
71303;SDS011;59091;47.446;19.148;2023-07-29T00:08:31;2.90;;;2.60;;
71303;SDS011;59091;47.446;19.148;2023-07-29T00:10:57;4.00;;;2.47;;
71303;SDS011;59091;47.446;19.148;2023-07-29T00:13:22;4.82;;;2.33;;
71303;SDS011;59091;47.446;19.148;2023-07-29T00:15:48;5.50;;;2.83;;
71303;SDS011;59091;47.446;19.148;2023-07-29T00:18:13;4.30;;;2.58;;
71303;SDS011;59091;47.446;19.148;2023-07-29T00:20:39;4.95;;;2.88;;
71303;SDS011;59091;47.446;19.148;2023-07-29T00:23:04;7.40;;;2.90;;
71303;SDS011;59091;47.446;19.148;2023-07-29T00:25:29;4.72;;;2.63;;
71303;SDS011;59091;47.446;19.148;2023-07-29T00:27:55;6.10;;;2.88;;
71303;SDS011;59091;47.446;19.148;2023-07-29T00:30:21;11.57;;;3.50;;
71303;SDS011;59091;47.446;19.148;2023-07-29T00:32:47;3.85;;;2.80;;
71303;SDS011;59091;47.446;19.148;2023-07-29T00:35:12;4.63;;;2.60;;
71303;SDS011;59091;47.446;19.148;2023-07-29T00:37:38;6.30;;;2.80;;
71303;SDS011;59091;47.446;19.148;2023-07-29T00:40:05;6.20;;;2.90;;
71303;SDS011;59091;47.446;19.148;2023-07-29T00:42:39;3.67;;;2.60;;
71303;SDS011;59091;47.446;19.148;2023-07-29T00:45:05;5.93;;;2.90;;
71303;SDS011;59091;47.446;19.148;2023-07-29T00:47:32;5.95;;;2.85;;
71303;SDS011;59091;47.446;19.148;2023-07-29T00:49:58;6.25;;;2.92;;
71303;SDS011;59091;47.446;19.148;2023-07-29T00:52:23;3.97;;;2.90;;
71303;SDS011;59091;47.446;19.148;2023-07-29T00:54:49;7.20;;;3.20;;
71303;SDS011;59091;47.446;19.148;2023-07-29T00:57:14;5.60;;;3.00;;
71303;SDS011;59091;47.446;19.148;2023-07-29T00:59:41;4.90;;;2.97;;
71303;SDS011;59091;47.446;19.148;2023-07-29T01:02:07;5.82;;;2.90;;
71303;SDS011;59091;47.446;19.148;2023-07-29T01:04:33;5.32;;;2.70;;
71303;SDS011;59091;47.446;19.148;2023-07-29T01:07:02;6.55;;;3.03;;
71303;SDS011;59091;47.446;19.148;2023-07-29T01:09:41;3.92;;;2.80;;
71303;SDS011;59091;47.446;19.148;2023-07-29T01:17:29;2.88;;;2.65;;
71303;SDS011;59091;47.446;19.148;2023-07-29T01:20:09;9.45;;;3.08;;
71303;SDS011;59091;47.446;19.148;2023-07-29T01:22:37;5.53;;;3.20;;
71303;SDS011;59091;47.446;19.148;2023-07-29T01:25:05;4.07;;;2.83;;
71303;SDS011;59091;47.446;19.148;2023-07-29T01:27:31;4.05;;;2.97;;
71303;SDS011;59091;47.446;19.148;2023-07-29T01:29:57;4.28;;;3.08;;
71303;SDS011;59091;47.446;19.148;2023-07-29T01:32:33;5.55;;;2.70;;
71303;SDS011;59091;47.446;19.148;2023-07-29T01:35:01;4.63;;;2.90;;
71303;SDS011;59091;47.446;19.148;2023-07-29T01:37:32;5.95;;;2.72;;
71303;SDS011;59091;47.446;19.148;2023-07-29T01:39:59;4.07;;;3.30;;
71303;SDS011;59091;47.446;19.148;2023-07-29T01:42:27;5.00;;;3.10;;
71303;SDS011;59091;47.446;19.148;2023-07-29T01:44:54;7.65;;;2.97;;
71303;SDS011;59091;47.446;19.148;2023-07-29T01:47:20;5.35;;;2.92;;
71303;SDS011;59091;47.446;19.148;2023-07-29T01:49:47;11.45;;;3.03;;
71303;SDS011;59091;47.446;19.148;2023-07-29T01:52:12;6.75;;;3.03;;
71303;SDS011;59091;47.446;19.148;2023-07-29T01:54:38;4.05;;;2.97;;
71303;SDS011;59091;47.446;19.148;2023-07-29T01:57:03;3.95;;;2.85;;
71303;SDS011;59091;47.446;19.148;2023-07-29T01:59:29;4.20;;;3.00;;
71303;SDS011;59091;47.446;19.148;2023-07-29T02:01:54;6.40;;;3.03;;
71303;SDS011;59091;47.446;19.148;2023-07-29T02:04:19;7.25;;;2.85;;
71303;SDS011;59091;47.446;19.148;2023-07-29T02:06:45;4.63;;;3.10;;
71303;SDS011;59091;47.446;19.148;2023-07-29T02:09:10;5.00;;;3.03;;
71303;SDS011;59091;47.446;19.148;2023-07-29T02:11:36;4.32;;;3.05;;
71303;SDS011;59091;47.446;19.148;2023-07-29T02:14:01;5.90;;;3.38;;
71303;SDS011;59091;47.446;19.148;2023-07-29T02:16:26;3.28;;;2.78;;
71303;SDS011;59091;47.446;19.148;2023-07-29T02:18:52;3.60;;;2.80;;
71303;SDS011;59091;47.446;19.148;2023-07-29T02:21:17;4.50;;;3.13;;
71303;SDS011;59091;47.446;19.148;2023-07-29T02:23:43;3.63;;;2.60;;
71303;SDS011;59091;47.446;19.148;2023-07-29T02:26:08;5.30;;;2.80;;
71303;SDS011;59091;47.446;19.148;2023-07-29T02:28:33;4.65;;;2.97;;
71303;SDS011;59091;47.446;19.148;2023-07-29T02:31:09;5.03;;;3.10;;
71303;SDS011;59091;47.446;19.148;2023-07-29T02:33:44;5.05;;;2.88;;
71303;SDS011;59091;47.446;19.148;2023-07-29T02:36:11;3.55;;;2.70;;
71303;SDS011;59091;47.446;19.148;2023-07-29T02:38:37;4.20;;;3.10;;
71303;SDS011;59091;47.446;19.148;2023-07-29T02:41:02;4.47;;;2.78;;
71303;SDS011;59091;47.446;19.148;2023-07-29T02:43:28;3.95;;;3.10;;
71303;SDS011;59091;47.446;19.148;2023-07-29T02:45:53;3.97;;;3.05;;
71303;SDS011;59091;47.446;19.148;2023-07-29T02:48:19;3.13;;;2.78;;
71303;SDS011;59091;47.446;19.148;2023-07-29T02:50:44;5.60;;;3.20;;
71303;SDS011;59091;47.446;19.148;2023-07-29T02:53:10;5.05;;;3.28;;
71303;SDS011;59091;47.446;19.148;2023-07-29T02:55:39;3.88;;;3.05;;
71303;SDS011;59091;47.446;19.148;2023-07-29T02:58:05;5.18;;;3.20;;
71303;SDS011;59091;47.446;19.148;2023-07-29T03:00:31;5.47;;;3.05;;
71303;SDS011;59091;47.446;19.148;2023-07-29T03:02:58;4.28;;;3.20;;
71303;SDS011;59091;47.446;19.148;2023-07-29T03:05:23;6.03;;;3.10;;
71303;SDS011;59091;47.446;19.148;2023-07-29T03:07:49;5.47;;;3.25;;
71303;SDS011;59091;47.446;19.148;2023-07-29T03:10:14;9.60;;;3.17;;
71303;SDS011;59091;47.446;19.148;2023-07-29T03:12:40;6.25;;;3.33;;
71303;SDS011;59091;47.446;19.148;2023-07-29T03:15:05;3.83;;;2.80;;
71303;SDS011;59091;47.446;19.148;2023-07-29T03:17:31;4.68;;;2.70;;
71303;SDS011;59091;47.446;19.148;2023-07-29T03:19:57;4.80;;;3.20;;
71303;SDS011;59091;47.446;19.148;2023-07-29T03:22:22;3.92;;;3.13;;
71303;SDS011;59091;47.446;19.148;2023-07-29T03:24:48;4.10;;;2.90;;
71303;SDS011;59091;47.446;19.148;2023-07-29T03:27:13;5.30;;;3.38;;
71303;SDS011;59091;47.446;19.148;2023-07-29T03:29:40;3.90;;;3.10;;
71303;SDS011;59091;47.446;19.148;2023-07-29T03:32:06;5.93;;;3.15;;
71303;SDS011;59091;47.446;19.148;2023-07-29T03:34:32;4.53;;;3.28;;
71303;SDS011;59091;47.446;19.148;2023-07-29T03:36:57;5.63;;;3.20;;
71303;SDS011;59091;47.446;19.148;2023-07-29T03:39:23;4.78;;;3.20;;
71303;SDS011;59091;47.446;19.148;2023-07-29T03:41:49;5.88;;;3.15;;
71303;SDS011;59091;47.446;19.148;2023-07-29T03:44:14;4.07;;;3.17;;
71303;SDS011;59091;47.446;19.148;2023-07-29T03:46:40;7.85;;;3.38;;
71303;SDS011;59091;47.446;19.148;2023-07-29T03:49:05;4.25;;;3.40;;
71303;SDS011;59091;47.446;19.148;2023-07-29T03:51:31;8.48;;;3.50;;
71303;SDS011;59091;47.446;19.148;2023-07-29T03:53:56;8.48;;;3.78;;
71303;SDS011;59091;47.446;19.148;2023-07-29T03:56:21;5.57;;;3.50;;
71303;SDS011;59091;47.446;19.148;2023-07-29T03:58:47;7.25;;;3.90;;
71303;SDS011;59091;47.446;19.148;2023-07-29T04:01:14;8.38;;;3.40;;
71303;SDS011;59091;47.446;19.148;2023-07-29T04:03:40;8.10;;;3.63;;
71303;SDS011;59091;47.446;19.148;2023-07-29T04:06:05;7.57;;;3.60;;
71303;SDS011;59091;47.446;19.148;2023-07-29T04:08:31;15.25;;;3.90;;
71303;SDS011;59091;47.446;19.148;2023-07-29T04:10:56;7.57;;;3.78;;
71303;SDS011;59091;47.446;19.148;2023-07-29T04:13:22;8.75;;;3.92;;
71303;SDS011;59091;47.446;19.148;2023-07-29T04:15:47;7.30;;;3.50;;
71303;SDS011;59091;47.446;19.148;2023-07-29T04:18:12;6.55;;;3.85;;
71303;SDS011;59091;47.446;19.148;2023-07-29T04:20:38;4.88;;;3.42;;
71303;SDS011;59091;47.446;19.148;2023-07-29T04:23:03;6.53;;;3.60;;
71303;SDS011;59091;47.446;19.148;2023-07-29T04:25:29;4.25;;;3.55;;
71303;SDS011;59091;47.446;19.148;2023-07-29T04:27:54;5.95;;;3.80;;
71303;SDS011;59091;47.446;19.148;2023-07-29T04:30:20;5.68;;;3.95;;
71303;SDS011;59091;47.446;19.148;2023-07-29T04:32:46;5.18;;;4.05;;
71303;SDS011;59091;47.446;19.148;2023-07-29T04:35:13;7.32;;;3.47;;
71303;SDS011;59091;47.446;19.148;2023-07-29T04:37:39;6.72;;;3.80;;
71303;SDS011;59091;47.446;19.148;2023-07-29T04:40:05;5.03;;;3.70;;
71303;SDS011;59091;47.446;19.148;2023-07-29T04:42:33;4.75;;;3.40;;
71303;SDS011;59091;47.446;19.148;2023-07-29T04:44:59;5.35;;;3.88;;
71303;SDS011;59091;47.446;19.148;2023-07-29T04:47:24;6.53;;;3.58;;
71303;SDS011;59091;47.446;19.148;2023-07-29T04:49:49;5.57;;;4.60;;
71303;SDS011;59091;47.446;19.148;2023-07-29T04:52:15;4.88;;;3.67;;
71303;SDS011;59091;47.446;19.148;2023-07-29T04:54:40;5.97;;;4.18;;
71303;SDS011;59091;47.446;19.148;2023-07-29T04:57:06;6.25;;;4.25;;
71303;SDS011;59091;47.446;19.148;2023-07-29T04:59:32;6.30;;;4.35;;
71303;SDS011;59091;47.446;19.148;2023-07-29T05:01:57;5.50;;;3.63;;
71303;SDS011;59091;47.446;19.148;2023-07-29T05:04:22;4.53;;;4.03;;
71303;SDS011;59091;47.446;19.148;2023-07-29T05:06:48;7.35;;;3.83;;
71303;SDS011;59091;47.446;19.148;2023-07-29T05:09:15;6.43;;;4.28;;
71303;SDS011;59091;47.446;19.148;2023-07-29T05:11:43;6.20;;;4.03;;
71303;SDS011;59091;47.446;19.148;2023-07-29T05:14:16;8.10;;;4.60;;
71303;SDS011;59091;47.446;19.148;2023-07-29T05:16:43;7.40;;;3.75;;
71303;SDS011;59091;47.446;19.148;2023-07-29T05:19:09;5.88;;;4.80;;
71303;SDS011;59091;47.446;19.148;2023-07-29T05:21:35;6.55;;;3.83;;
71303;SDS011;59091;47.446;19.148;2023-07-29T05:24:02;8.95;;;3.85;;
71303;SDS011;59091;47.446;19.148;2023-07-29T05:26:27;3.55;;;3.25;;
71303;SDS011;59091;47.446;19.148;2023-07-29T05:28:53;6.25;;;3.55;;
71303;SDS011;59091;47.446;19.148;2023-07-29T05:31:18;4.40;;;3.22;;
71303;SDS011;59091;47.446;19.148;2023-07-29T05:33:43;4.10;;;2.90;;
71303;SDS011;59091;47.446;19.148;2023-07-29T05:36:09;5.57;;;2.85;;
71303;SDS011;59091;47.446;19.148;2023-07-29T05:38:35;4.35;;;3.00;;
71303;SDS011;59091;47.446;19.148;2023-07-29T05:41:00;5.45;;;3.05;;
71303;SDS011;59091;47.446;19.148;2023-07-29T05:43:26;7.50;;;3.10;;
71303;SDS011;59091;47.446;19.148;2023-07-29T05:45:52;3.55;;;3.00;;
71303;SDS011;59091;47.446;19.148;2023-07-29T05:48:19;5.80;;;3.00;;
71303;SDS011;59091;47.446;19.148;2023-07-29T05:50:45;6.85;;;3.20;;
71303;SDS011;59091;47.446;19.148;2023-07-29T05:53:10;4.85;;;2.90;;
71303;SDS011;59091;47.446;19.148;2023-07-29T05:55:36;3.80;;;2.90;;
71303;SDS011;59091;47.446;19.148;2023-07-29T05:58:01;11.55;;;3.60;;
71303;SDS011;59091;47.446;19.148;2023-07-29T06:00:27;11.40;;;3.50;;
71303;SDS011;59091;47.446;19.148;2023-07-29T06:02:52;4.50;;;3.20;;
71303;SDS011;59091;47.446;19.148;2023-07-29T06:05:17;7.05;;;3.28;;
71303;SDS011;59091;47.446;19.148;2023-07-29T06:07:43;6.18;;;3.55;;
71303;SDS011;59091;47.446;19.148;2023-07-29T06:10:10;10.38;;;3.88;;
71303;SDS011;59091;47.446;19.148;2023-07-29T06:12:38;5.05;;;3.50;;
71303;SDS011;59091;47.446;19.148;2023-07-29T06:15:04;10.77;;;3.60;;
71303;SDS011;59091;47.446;19.148;2023-07-29T06:17:30;11.77;;;3.72;;
71303;SDS011;59091;47.446;19.148;2023-07-29T06:19:55;6.05;;;3.30;;
71303;SDS011;59091;47.446;19.148;2023-07-29T06:22:21;3.83;;;3.00;;
71303;SDS011;59091;47.446;19.148;2023-07-29T06:24:46;5.90;;;3.30;;
71303;SDS011;59091;47.446;19.148;2023-07-29T06:27:11;4.38;;;2.70;;
71303;SDS011;59091;47.446;19.148;2023-07-29T06:29:37;2.70;;;2.50;;
71303;SDS011;59091;47.446;19.148;2023-07-29T06:32:02;6.68;;;3.28;;
71303;SDS011;59091;47.446;19.148;2023-07-29T06:34:28;4.85;;;2.80;;
71303;SDS011;59091;47.446;19.148;2023-07-29T06:36:54;7.20;;;3.20;;
71303;SDS011;59091;47.446;19.148;2023-07-29T06:39:19;4.68;;;2.60;;
71303;SDS011;59091;47.446;19.148;2023-07-29T06:41:44;5.57;;;2.67;;
71303;SDS011;59091;47.446;19.148;2023-07-29T06:44:10;5.68;;;3.15;;
71303;SDS011;59091;47.446;19.148;2023-07-29T06:46:35;4.35;;;2.92;;
71303;SDS011;59091;47.446;19.148;2023-07-29T06:49:01;8.20;;;2.85;;
71303;SDS011;59091;47.446;19.148;2023-07-29T06:51:26;4.78;;;3.47;;
71303;SDS011;59091;47.446;19.148;2023-07-29T06:53:54;3.58;;;2.63;;
71303;SDS011;59091;47.446;19.148;2023-07-29T06:56:19;4.38;;;2.80;;
71303;SDS011;59091;47.446;19.148;2023-07-29T06:58:45;4.00;;;2.83;;
71303;SDS011;59091;47.446;19.148;2023-07-29T07:01:10;3.25;;;2.85;;
71303;SDS011;59091;47.446;19.148;2023-07-29T07:03:35;3.10;;;2.83;;
71303;SDS011;59091;47.446;19.148;2023-07-29T07:06:01;4.00;;;2.95;;
71303;SDS011;59091;47.446;19.148;2023-07-29T07:08:26;4.22;;;2.85;;
71303;SDS011;59091;47.446;19.148;2023-07-29T07:10:52;2.90;;;2.70;;
71303;SDS011;59091;47.446;19.148;2023-07-29T07:13:17;5.28;;;2.60;;
71303;SDS011;59091;47.446;19.148;2023-07-29T07:15:43;6.40;;;3.00;;
71303;SDS011;59091;47.446;19.148;2023-07-29T07:18:08;4.18;;;2.70;;
71303;SDS011;59091;47.446;19.148;2023-07-29T07:20:34;4.40;;;2.90;;
71303;SDS011;59091;47.446;19.148;2023-07-29T07:22:59;4.65;;;2.70;;
71303;SDS011;59091;47.446;19.148;2023-07-29T07:25:25;5.18;;;2.65;;
71303;SDS011;59091;47.446;19.148;2023-07-29T07:27:50;3.42;;;2.40;;
71303;SDS011;59091;47.446;19.148;2023-07-29T07:30:16;6.28;;;3.13;;
71303;SDS011;59091;47.446;19.148;2023-07-29T07:32:41;4.30;;;2.78;;
71303;SDS011;59091;47.446;19.148;2023-07-29T07:35:07;7.28;;;2.60;;
71303;SDS011;59091;47.446;19.148;2023-07-29T07:37:32;4.55;;;2.50;;
71303;SDS011;59091;47.446;19.148;2023-07-29T07:39:58;2.17;;;2.00;;
71303;SDS011;59091;47.446;19.148;2023-07-29T07:42:23;2.35;;;2.00;;
71303;SDS011;59091;47.446;19.148;2023-07-29T07:44:49;5.63;;;2.22;;
71303;SDS011;59091;47.446;19.148;2023-07-29T07:47:14;2.10;;;2.00;;
71303;SDS011;59091;47.446;19.148;2023-07-29T07:49:40;5.40;;;1.90;;
71303;SDS011;59091;47.446;19.148;2023-07-29T07:52:05;2.38;;;1.85;;
71303;SDS011;59091;47.446;19.148;2023-07-29T07:54:31;3.70;;;2.10;;
71303;SDS011;59091;47.446;19.148;2023-07-29T07:56:56;2.05;;;1.95;;
71303;SDS011;59091;47.446;19.148;2023-07-29T07:59:22;3.38;;;1.70;;
71303;SDS011;59091;47.446;19.148;2023-07-29T08:01:47;2.13;;;1.95;;
71303;SDS011;59091;47.446;19.148;2023-07-29T08:04:12;1.80;;;1.70;;
71303;SDS011;59091;47.446;19.148;2023-07-29T08:06:38;4.22;;;1.85;;
71303;SDS011;59091;47.446;19.148;2023-07-29T08:09:04;1.88;;;1.55;;
71303;SDS011;59091;47.446;19.148;2023-07-29T08:11:30;2.92;;;1.58;;
71303;SDS011;59091;47.446;19.148;2023-07-29T08:13:55;1.95;;;1.80;;
71303;SDS011;59091;47.446;19.148;2023-07-29T08:16:20;1.88;;;1.77;;
71303;SDS011;59091;47.446;19.148;2023-07-29T08:18:46;3.55;;;1.67;;
71303;SDS011;59091;47.446;19.148;2023-07-29T08:21:12;1.70;;;1.60;;
71303;SDS011;59091;47.446;19.148;2023-07-29T08:23:37;1.90;;;1.65;;
71303;SDS011;59091;47.446;19.148;2023-07-29T08:26:04;2.65;;;1.67;;
71303;SDS011;59091;47.446;19.148;2023-07-29T08:28:31;2.00;;;1.80;;
71303;SDS011;59091;47.446;19.148;2023-07-29T08:30:58;2.20;;;1.98;;
71303;SDS011;59091;47.446;19.148;2023-07-29T08:33:23;2.28;;;1.90;;
71303;SDS011;59091;47.446;19.148;2023-07-29T08:35:49;4.07;;;1.95;;
71303;SDS011;59091;47.446;19.148;2023-07-29T08:38:15;1.88;;;1.73;;
71303;SDS011;59091;47.446;19.148;2023-07-29T08:40:42;5.50;;;1.90;;
71303;SDS011;59091;47.446;19.148;2023-07-29T08:43:14;3.13;;;1.50;;
71303;SDS011;59091;47.446;19.148;2023-07-29T08:45:43;2.85;;;1.60;;
71303;SDS011;59091;47.446;19.148;2023-07-29T08:48:10;1.50;;;1.40;;
71303;SDS011;59091;47.446;19.148;2023-07-29T08:50:36;1.52;;;1.42;;
71303;SDS011;59091;47.446;19.148;2023-07-29T08:53:05;1.65;;;1.40;;
71303;SDS011;59091;47.446;19.148;2023-07-29T08:55:31;2.22;;;1.30;;
71303;SDS011;59091;47.446;19.148;2023-07-29T08:57:58;6.10;;;1.63;;
71303;SDS011;59091;47.446;19.148;2023-07-29T09:00:25;1.60;;;1.50;;
71303;SDS011;59091;47.446;19.148;2023-07-29T09:02:52;1.95;;;1.40;;
71303;SDS011;59091;47.446;19.148;2023-07-29T09:05:17;7.15;;;1.55;;
71303;SDS011;59091;47.446;19.148;2023-07-29T09:07:44;1.70;;;1.60;;
71303;SDS011;59091;47.446;19.148;2023-07-29T09:10:09;1.55;;;1.45;;
71303;SDS011;59091;47.446;19.148;2023-07-29T09:12:36;3.78;;;2.10;;
71303;SDS011;59091;47.446;19.148;2023-07-29T09:15:01;6.45;;;2.10;;
71303;SDS011;59091;47.446;19.148;2023-07-29T09:17:27;4.47;;;2.80;;
71303;SDS011;59091;47.446;19.148;2023-07-29T09:19:59;5.47;;;2.78;;
71303;SDS011;59091;47.446;19.148;2023-07-29T09:22:24;2.85;;;1.60;;
71303;SDS011;59091;47.446;19.148;2023-07-29T09:24:52;2.08;;;1.40;;
71303;SDS011;59091;47.446;19.148;2023-07-29T09:27:25;1.92;;;1.70;;
71303;SDS011;59091;47.446;19.148;2023-07-29T09:29:52;7.47;;;1.77;;
71303;SDS011;59091;47.446;19.148;2023-07-29T09:32:18;2.08;;;1.88;;
71303;SDS011;59091;47.446;19.148;2023-07-29T09:34:48;4.32;;;1.90;;
71303;SDS011;59091;47.446;19.148;2023-07-29T09:37:21;3.13;;;1.73;;
71303;SDS011;59091;47.446;19.148;2023-07-29T09:42:20;2.30;;;2.10;;
71303;SDS011;59091;47.446;19.148;2023-07-29T09:44:48;3.28;;;2.20;;
71303;SDS011;59091;47.446;19.148;2023-07-29T09:49:46;1.83;;;1.45;;
71303;SDS011;59091;47.446;19.148;2023-07-29T09:52:12;7.25;;;1.50;;
71303;SDS011;59091;47.446;19.148;2023-07-29T09:54:40;1.80;;;1.38;;
71303;SDS011;59091;47.446;19.148;2023-07-29T09:57:07;2.58;;;1.50;;
71303;SDS011;59091;47.446;19.148;2023-07-29T09:59:36;1.67;;;1.40;;
71303;SDS011;59091;47.446;19.148;2023-07-29T10:02:01;8.60;;;1.58;;
71303;SDS011;59091;47.446;19.148;2023-07-29T10:04:27;1.55;;;1.45;;
71303;SDS011;59091;47.446;19.148;2023-07-29T10:06:54;1.75;;;1.65;;
71303;SDS011;59091;47.446;19.148;2023-07-29T10:09:21;3.15;;;1.63;;
71303;SDS011;59091;47.446;19.148;2023-07-29T10:11:48;1.48;;;1.33;;
71303;SDS011;59091;47.446;19.148;2023-07-29T10:14:15;2.17;;;1.52;;
71303;SDS011;59091;47.446;19.148;2023-07-29T10:16:42;3.90;;;1.58;;
71303;SDS011;59091;47.446;19.148;2023-07-29T10:19:10;1.45;;;1.33;;
71303;SDS011;59091;47.446;19.148;2023-07-29T10:21:38;2.03;;;1.40;;
71303;SDS011;59091;47.446;19.148;2023-07-29T10:24:05;1.50;;;1.40;;
71303;SDS011;59091;47.446;19.148;2023-07-29T10:26:37;3.88;;;1.60;;
71303;SDS011;59091;47.446;19.148;2023-07-29T10:29:04;1.52;;;1.42;;
71303;SDS011;59091;47.446;19.148;2023-07-29T10:31:34;1.30;;;1.20;;
71303;SDS011;59091;47.446;19.148;2023-07-29T10:34:01;1.67;;;1.48;;
71303;SDS011;59091;47.446;19.148;2023-07-29T10:36:28;1.67;;;1.40;;
71303;SDS011;59091;47.446;19.148;2023-07-29T10:38:54;1.50;;;1.40;;
71303;SDS011;59091;47.446;19.148;2023-07-29T10:41:20;1.50;;;1.40;;
71303;SDS011;59091;47.446;19.148;2023-07-29T10:43:45;1.40;;;1.30;;
71303;SDS011;59091;47.446;19.148;2023-07-29T10:46:17;1.60;;;1.50;;
71303;SDS011;59091;47.446;19.148;2023-07-29T10:48:54;1.73;;;1.63;;
71303;SDS011;59091;47.446;19.148;2023-07-29T11:01:41;1.30;;;1.20;;
71303;SDS011;59091;47.446;19.148;2023-07-29T11:15:02;1.38;;;1.27;;
71303;SDS011;59091;47.446;19.148;2023-07-29T11:17:34;1.38;;;1.27;;
71303;SDS011;59091;47.446;19.148;2023-07-29T11:20:03;1.83;;;1.30;;
71303;SDS011;59091;47.446;19.148;2023-07-29T11:22:29;1.30;;;1.20;;
71303;SDS011;59091;47.446;19.148;2023-07-29T11:24:55;1.30;;;1.20;;
71303;SDS011;59091;47.446;19.148;2023-07-29T11:27:21;1.13;;;1.13;;
71303;SDS011;59091;47.446;19.148;2023-07-29T11:29:46;1.40;;;1.30;;
71303;SDS011;59091;47.446;19.148;2023-07-29T11:32:12;1.65;;;1.27;;
71303;SDS011;59091;47.446;19.148;2023-07-29T11:34:38;1.15;;;1.10;;
71303;SDS011;59091;47.446;19.148;2023-07-29T11:37:05;1.20;;;1.20;;
71303;SDS011;59091;47.446;19.148;2023-07-29T11:39:31;1.17;;;1.02;;
71303;SDS011;59091;47.446;19.148;2023-07-29T11:41:58;1.30;;;1.20;;
71303;SDS011;59091;47.446;19.148;2023-07-29T11:44:24;3.90;;;1.65;;
71303;SDS011;59091;47.446;19.148;2023-07-29T11:46:50;1.73;;;1.50;;
71303;SDS011;59091;47.446;19.148;2023-07-29T11:49:15;2.22;;;1.20;;
71303;SDS011;59091;47.446;19.148;2023-07-29T11:51:41;1.33;;;1.30;;
71303;SDS011;59091;47.446;19.148;2023-07-29T11:54:08;1.20;;;1.20;;
71303;SDS011;59091;47.446;19.148;2023-07-29T11:56:34;1.50;;;1.40;;
71303;SDS011;59091;47.446;19.148;2023-07-29T11:59:00;2.65;;;1.35;;
71303;SDS011;59091;47.446;19.148;2023-07-29T12:01:27;1.50;;;1.40;;
71303;SDS011;59091;47.446;19.148;2023-07-29T12:03:53;1.17;;;1.17;;
71303;SDS011;59091;47.446;19.148;2023-07-29T12:06:23;1.30;;;1.20;;
71303;SDS011;59091;47.446;19.148;2023-07-29T12:08:50;2.13;;;1.60;;
71303;SDS011;59091;47.446;19.148;2023-07-29T12:11:16;5.50;;;1.25;;
71303;SDS011;59091;47.446;19.148;2023-07-29T12:13:42;3.50;;;1.30;;
71303;SDS011;59091;47.446;19.148;2023-07-29T12:16:09;1.45;;;1.35;;
71303;SDS011;59091;47.446;19.148;2023-07-29T12:18:35;1.75;;;1.23;;
71303;SDS011;59091;47.446;19.148;2023-07-29T12:21:01;1.60;;;1.45;;
71303;SDS011;59091;47.446;19.148;2023-07-29T12:23:28;1.65;;;1.38;;
71303;SDS011;59091;47.446;19.148;2023-07-29T12:25:58;2.25;;;1.40;;
71303;SDS011;59091;47.446;19.148;2023-07-29T12:28:24;2.83;;;1.25;;
71303;SDS011;59091;47.446;19.148;2023-07-29T12:30:54;3.42;;;1.40;;
71303;SDS011;59091;47.446;19.148;2023-07-29T12:33:30;3.17;;;1.40;;
71303;SDS011;59091;47.446;19.148;2023-07-29T12:35:56;7.05;;;1.50;;
71303;SDS011;59091;47.446;19.148;2023-07-29T12:38:22;1.65;;;1.40;;
71303;SDS011;59091;47.446;19.148;2023-07-29T12:40:47;1.40;;;1.30;;
71303;SDS011;59091;47.446;19.148;2023-07-29T12:43:13;4.20;;;1.50;;
71303;SDS011;59091;47.446;19.148;2023-07-29T12:45:38;1.52;;;1.40;;
71303;SDS011;59091;47.446;19.148;2023-07-29T12:48:07;1.48;;;1.30;;
71303;SDS011;59091;47.446;19.148;2023-07-29T12:50:33;1.88;;;1.45;;
71303;SDS011;59091;47.446;19.148;2023-07-29T12:52:58;4.05;;;1.40;;
71303;SDS011;59091;47.446;19.148;2023-07-29T12:55:24;1.48;;;1.38;;
71303;SDS011;59091;47.446;19.148;2023-07-29T12:57:49;1.30;;;1.20;;
71303;SDS011;59091;47.446;19.148;2023-07-29T13:00:15;1.42;;;1.33;;
71303;SDS011;59091;47.446;19.148;2023-07-29T13:02:40;2.35;;;1.60;;
71303;SDS011;59091;47.446;19.148;2023-07-29T13:05:08;1.17;;;1.10;;
71303;SDS011;59091;47.446;19.148;2023-07-29T13:07:36;2.95;;;1.40;;
71303;SDS011;59091;47.446;19.148;2023-07-29T13:10:02;1.30;;;1.20;;
71303;SDS011;59091;47.446;19.148;2023-07-29T13:12:28;3.40;;;1.20;;
71303;SDS011;59091;47.446;19.148;2023-07-29T13:14:54;4.40;;;1.40;;
71303;SDS011;59091;47.446;19.148;2023-07-29T13:17:19;1.38;;;1.27;;
71303;SDS011;59091;47.446;19.148;2023-07-29T13:19:46;1.20;;;1.10;;
71303;SDS011;59091;47.446;19.148;2023-07-29T13:22:12;1.30;;;1.20;;
71303;SDS011;59091;47.446;19.148;2023-07-29T13:24:37;1.58;;;1.30;;
71303;SDS011;59091;47.446;19.148;2023-07-29T13:27:03;2.17;;;1.20;;
71303;SDS011;59091;47.446;19.148;2023-07-29T13:29:28;1.50;;;1.40;;
71303;SDS011;59091;47.446;19.148;2023-07-29T13:31:54;3.97;;;1.27;;
71303;SDS011;59091;47.446;19.148;2023-07-29T13:34:19;1.25;;;1.15;;
71303;SDS011;59091;47.446;19.148;2023-07-29T13:36:45;1.23;;;1.20;;
71303;SDS011;59091;47.446;19.148;2023-07-29T13:39:10;1.63;;;1.52;;
71303;SDS011;59091;47.446;19.148;2023-07-29T13:41:35;2.85;;;1.45;;
71303;SDS011;59091;47.446;19.148;2023-07-29T13:44:01;1.30;;;1.20;;
71303;SDS011;59091;47.446;19.148;2023-07-29T13:46:26;3.90;;;1.40;;
71303;SDS011;59091;47.446;19.148;2023-07-29T13:48:52;1.30;;;1.20;;
71303;SDS011;59091;47.446;19.148;2023-07-29T13:51:17;4.47;;;1.70;;
71303;SDS011;59091;47.446;19.148;2023-07-29T13:53:42;1.25;;;1.20;;
71303;SDS011;59091;47.446;19.148;2023-07-29T13:56:08;1.55;;;1.45;;
71303;SDS011;59091;47.446;19.148;2023-07-29T13:58:33;1.35;;;1.25;;
71303;SDS011;59091;47.446;19.148;2023-07-29T14:00:59;1.40;;;1.30;;
71303;SDS011;59091;47.446;19.148;2023-07-29T14:03:24;2.13;;;1.60;;
71303;SDS011;59091;47.446;19.148;2023-07-29T14:05:50;5.93;;;3.10;;
71303;SDS011;59091;47.446;19.148;2023-07-29T14:08:15;4.10;;;2.70;;
71303;SDS011;59091;47.446;19.148;2023-07-29T14:10:41;1.60;;;1.50;;
71303;SDS011;59091;47.446;19.148;2023-07-29T14:13:06;2.55;;;1.20;;
71303;SDS011;59091;47.446;19.148;2023-07-29T14:15:31;1.77;;;1.38;;
71303;SDS011;59091;47.446;19.148;2023-07-29T14:18:00;2.30;;;1.50;;
71303;SDS011;59091;47.446;19.148;2023-07-29T14:20:27;1.45;;;1.20;;
71303;SDS011;59091;47.446;19.148;2023-07-29T14:22:53;2.72;;;1.40;;
71303;SDS011;59091;47.446;19.148;2023-07-29T14:25:18;1.85;;;1.55;;
71303;SDS011;59091;47.446;19.148;2023-07-29T14:27:43;1.50;;;1.40;;
71303;SDS011;59091;47.446;19.148;2023-07-29T14:30:09;2.88;;;1.48;;
71303;SDS011;59091;47.446;19.148;2023-07-29T14:32:35;1.45;;;1.35;;
71303;SDS011;59091;47.446;19.148;2023-07-29T14:35:01;2.42;;;1.38;;
71303;SDS011;59091;47.446;19.148;2023-07-29T14:37:29;1.50;;;1.40;;
71303;SDS011;59091;47.446;19.148;2023-07-29T14:39:56;1.50;;;1.40;;
71303;SDS011;59091;47.446;19.148;2023-07-29T14:42:22;1.30;;;1.30;;
71303;SDS011;59091;47.446;19.148;2023-07-29T14:44:48;1.40;;;1.30;;
71303;SDS011;59091;47.446;19.148;2023-07-29T14:47:13;1.95;;;1.42;;
71303;SDS011;59091;47.446;19.148;2023-07-29T14:49:39;1.33;;;1.30;;
71303;SDS011;59091;47.446;19.148;2023-07-29T14:52:05;1.40;;;1.30;;
71303;SDS011;59091;47.446;19.148;2023-07-29T14:54:31;1.65;;;1.50;;
71303;SDS011;59091;47.446;19.148;2023-07-29T14:56:56;3.30;;;1.40;;
71303;SDS011;59091;47.446;19.148;2023-07-29T14:59:21;2.03;;;1.60;;